Tiempo atmosférico en la estación meteorológica de Bilbao Aeropuerto, Bizkaia (42 m.)



Fecha
DESCASC
Temp. máxima en grados centígrados (hora)
DESCASC
Temp. mínima en grados centígrados (hora)
DESCASC
Temp. media en grados centígrados
DESCASC
Racha de viento máxima en m/sg (hora)
DESCASC
Velocidad máxima media en intervalos de 10 minutos(hora)
DESCASC
Precipitaciones diarias en mm
DESCASC
Precipitaciones de 00:00 a 06:00 en mm
DESCASC
Precipitaciones de 06:00 a 12:00 en mm
DESCASC
Precipitaciones de 12:00 a 18:00 en mm
DESCASC
Precipitaciones de 18:00 a 24:00 en mm
DESCASC
22-08-2019 28.7 (15:40) 13.2 (07:20) 21 11.39 (20:00) 6.11 (18:30) 0 0 0 0 0
21-08-2019 26.5 (15:30) 15.5 (07:50) 21 9.17 (18:20) 5.83 (16:00) 0 0 0 0 0
20-08-2019 23.4 (15:10) 16.2 (08:10) 19.8 10.83 (19:50) 5.28 (17:50) 0.7 0.1 0.6 0 0
19-08-2019 19.9 (13:20) 15.9 (07:50) 17.9 5.83 (13:50) 3.89 (14:00) 2.9 0.4 1.6 0.9 0
18-08-2019 25.2 (11:30) 16.1 (00:00) 20.7 10.83 (15:30) 8.06 (15:40) 2.6 0 0 0.7 1.9
17-08-2019 30 (13:20) 14.5 (00:00) 22.3 8.33 (14:20) 6.11 (14:20) 0 0 0 0 0
16-08-2019 27.8 (17:10) 12.2 (00:00) 20 8.89 (14:10) 6.39 (14:10) 0 0 0 0 0
15-08-2019 23.8 (15:50) 15.9 (00:00) 19.8 9.72 (05:10) 6.39 (05:10) 3.2 3.2 0 0 0
14-08-2019 27.3 (13:50) 12.8 (00:00) 20 9.72 (15:40) 6.11 (15:20) 0 0 0 0 0
13-08-2019 23.4 (16:40) 13.2 (00:00) 18.3 8.89 (17:50) 4.72 (16:40) 0.1 0.1 0 0 0
12-08-2019 21.7 (14:40) 14.2 (00:00) 18 13.33 (13:30) 10.28 (13:30) 0.1 0 0 0.1 0
11-08-2019 22.1 (15:40) 16.4 (00:00) 19.3 10.83 (14:30) 6.67 (16:20) 8.5 3 5.5 0 0
10-08-2019 24.3 (16:40) 18.8 (00:00) 21.5 8.33 (13:30) 5 (16:10) 0.1 0 0.1 0 0
09-08-2019 31.6 (02:10) 20.5 (00:00) 26.1 13.89 (15:10) 6.67 (15:10) 0 0 0 0 0
08-08-2019 35.5 (16:40) 20.1 (00:00) 27.8 11.67 (13:00) 6.67 (13:50) 0 0 0 0 0
07-08-2019 29.5 (17:50) 19.4 (00:00) 24.4 11.67 (16:50) 5 (16:10) 0 0 0 0 0
06-08-2019 28.5 (15:10) 16.2 (00:00) 22.4 8.89 (16:10) 6.39 (17:10) 0 0 0 0 0
05-08-2019 26.9 (14:10) 16.1 (00:00) 21.5 6.67 (14:40) 4.44 (19:20) 0 0 0 0 0
04-08-2019 23.8 (13:20) 18 (00:00) 20.9 7.22 (16:40) 4.17 (14:40) 0 0 0 0 0
03-08-2019 29.1 (14:10) 15.2 (00:00) 22.2 9.72 (15:50) 6.94 (15:50) 0 0 0 0 0
02-08-2019 26.2 (17:40) 18.5 (00:00) 22.4 7.78 (17:10) 4.72 (18:40) 0 0 0 0 0
01-08-2019 22.6 (12:50) 17.6 (00:00) 20.1 12.5 (05:00) 8.06 (05:10) 5.4 5.4 0 0 0
31-07-2019 24 (14:50) 12.1 (00:00) 18.1 10.28 (15:00) 5.28 (13:10) 0 0 0 0 0
30-07-2019 23 (15:40) 15.5 (00:00) 19.3 11.67 (13:10) 8.33 (15:50) 0 0 0 0 0
29-07-2019 24.8 (12:20) 14.4 (00:00) 19.6 11.39 (13:40) 7.78 (11:20) 1.1 0 0 0 1.1
28-07-2019 25.3 (17:10) 14.6 (00:00) 19.9 9.17 (15:50) 5.56 (11:30) 1.6 1.6 0 0 0
27-07-2019 20.3 (17:40) 15.7 (00:00) 18 11.67 (19:00) 8.33 (18:00) 7.1 3 3.7 0 0.4
26-07-2019 22.1 (00:10) 17.3 (00:00) 19.7 9.72 (16:50) 5.83 (16:50) 26 10 14.6 0.8 0.6

Gráficas

Temp. máximas Temp. mínimas Temp. medias Precipitaciones Rachas de viento máximas Velocidades máximas media en intervalos de 10 minutos

Datos horarios

Fecha y hora oficial Temperatura (ºC) Velocidad del viento (km/h) Dirección del viento Racha (km/h) Dirección de racha Precipitación (mm) Presión (hPa) Tendencia (hPa) Humedad (%)
2019-08-24 23:00:00 20.7 11 Noroeste 22 Oeste 0 1015.2 0.8 84
2019-08-24 22:00:00 20.6 14 Noroeste 21 Noroeste 0 1014.9 0.6 84
2019-08-24 21:00:00 20.5 14 Noroeste 28 Noroeste 0 1014.6 0.3 87
2019-08-24 20:00:00 21.4 20 Noroeste 28 Noroeste 0 1014.4 0.2 82
2019-08-24 19:00:00 21.9 17 Noroeste 28 Noroeste 0 1014.3 0.3 79
2019-08-24 18:00:00 22.6 20 Noroeste 30 Noroeste 0 1014.3 0.6 76
2019-08-24 17:00:00 23.1 21 Noroeste 32 Noroeste 0 1014.2 0.8 74
2019-08-24 16:00:00 24.8 24 Noroeste 33 Noroeste 0 1014 0.9 72
2019-08-24 15:00:00 25.4 20 Noroeste 32 Noroeste 0 1013.7 0.8 71
2019-08-24 14:00:00 26.2 23 Noroeste 32 Oeste 0 1013.4 0.7 67
2019-08-24 13:00:00 26.9 15 Noroeste 24 Noroeste 0 1013.1 0.5 64
2019-08-24 12:00:00 26.7 16 Oeste 24 Oeste 0 1012.9 0.5 59
2019-08-24 11:00:00 26.2 8 Oeste 13 Oeste 0 1012.7 0.4 53
2019-08-24 10:00:00 22.2 0 Calma 13 Sudeste 0 1012.6 0.9 65
2019-08-24 09:00:00 18.7 11 Este 15 Este 0 1012.4 0.7 76
2019-08-24 08:00:00 16.5 2 Sudoeste 15 Este 0 1012.3 0.5 82
2019-08-24 07:00:00 17.1 12 Este 17 Este 0 1011.7 -0.1 79
2019-08-24 06:00:00 17.6 9 Este 11 Este 0 1011.7 -0.3 77
2019-08-24 05:00:00 18.3 5 Nordeste 11 Este 0 1011.8 -0.5 75
2019-08-24 04:00:00 18.3 4 Este 8 Este 0 1011.8 -0.6 79
2019-08-24 03:00:00 18.7 3 Este 9 Este 0 1012 -0.5 80
2019-08-24 02:00:00 19.2 5 Este 13 Este 0 1012.3 -0.3 83
2019-08-24 01:00:00 19.1 8 Este 11 Este 0 1012.4 0.1 88
2019-08-24 00:00:00 19.8 6 Este 15 Nordeste 0 1012.5 0.6 86
2019-08-23 23:00:00 20.8 0 Calma 5 Sudeste 0 1012.6 1.1 83
2019-08-23 22:00:00 22.6 0 Calma 9 Oeste 0 1012.3 0.6 77
2019-08-23 21:00:00 25.5 3 Sudoeste 11 Oeste 0 1011.9 0.1 65
2019-08-23 20:00:00 27.5 8 Oeste 18 Oeste 0 1011.5 -0.1 58
2019-08-23 19:00:00 28.4 14 Oeste 26 Oeste 0 1011.7 0.1 54
2019-08-23 18:00:00 29.3 19 Oeste 26 Oeste 0 1011.8 -0.2 47
2019-08-23 17:00:00 30.4 16 Oeste 26 Oeste 0 1011.6 -1 42
2019-08-23 16:00:00 31.5 17 Oeste 24 Oeste 0 1011.6 -1.6 43
2019-08-23 15:00:00 34.3 8 Sudeste 24 Sur 0 1012 -1.7 25
2019-08-23 14:00:00 33.1 8 Sudeste 26 Sudeste 0 1012.6 -1.7 28
2019-08-23 13:00:00 30.8 14 Este 30 Sudeste 0 1013.2 -1.5 34
2019-08-23 12:00:00 27.6 14 Sudeste 28 Este 0 1013.7 -1.4 43
2019-08-23 11:00:00 24.5 18 Este 24 Este 0 1014.3 -1 52
2019-08-23 10:00:00 18.9 2 Nordeste 13 Sudeste 0 1014.7 -0.5 73
2019-08-23 09:00:00 15.5 7 Este 17 Sudeste 0 1015.1 -0.6 85
2019-08-23 08:00:00 13.1 9 Este 17 Este 0 1015.3 -0.4 91
2019-08-23 07:00:00 12.9 9 Este 18 Nordeste 0 1015.2 -1.2 92
2019-08-23 06:00:00 13.6 5 Este 9 Este 0 1015.7 -0.7 91
2019-08-23 05:00:00 13.3 5 Este 15 Este 0 1015.7 -1.3 92
2019-08-23 04:00:00 13.6 3 Este 9 Este 0 1016.4 -1.2 90
2019-08-23 03:00:00 14.5 3 Nordeste 9 Este 0 1016.4 -1.4 88
2019-08-23 02:00:00 14.7 8 Este 9 Este 0 1017 -0.9 86
2019-08-23 01:00:00 15.4 8 Este 11 Este 0 1017.6 -0.1 84
2019-08-23 00:00:00 16.4 9 Este 11 Este 0 1017.8 0.7 82
2019-08-22 23:00:00 18.1 3 Sudeste 9 Este 0 1017.9 1.3 76
2019-08-22 22:00:00 20.5 6 Este 15 Este 0 1017.7 1.1 62
2019-08-22 21:00:00 22.7 10 Nordeste 39 Nordeste 0 1017.1 0.1 54
2019-08-22 20:00:00 25 15 Nordeste 41 Nordeste 0 1016.6 -0.6 40
2019-08-22 19:00:00 26.1 20 Nordeste 32 Este 0 1016.6 -0.9 33
2019-08-22 18:00:00 26.8 22 Nordeste 37 Este 0 1017 -1.1 31
2019-08-22 17:00:00 27.6 18 Nordeste 37 Este 0 1017.2 -1.4 33
2019-08-22 16:00:00 28.3 17 Nordeste 30 Nordeste 0 1017.5 -1.6 32
2019-08-22 15:00:00 27.9 12 Norte 30 Nordeste 0 1018.1 -1.5 32
2019-08-22 14:00:00 27.1 14 Nordeste 28 Nordeste 0 1018.6 -1 40
2019-08-22 13:00:00 26.1 4 Sur 11 Sudeste 0 1019.1 -0.5 52
2019-08-22 12:00:00 23.5 4 Sudoeste 13 Norte 0 1019.6 0.1 63
2019-08-22 11:00:00 21.6 3 Sudeste 13 Nordeste 0 1019.6 0.5 71
2019-08-22 10:00:00 18.6 8 Este 13 Este 0 1019.6 0.9 83
2019-08-22 09:00:00 15.6 3 Este 13 Este 0 1019.5 0.9 90
2019-08-22 08:00:00 13.6 11 Este 21 Este 0 1019.1 0.5 95
2019-08-22 07:00:00 13.5 6 Este 11 Este 0 1018.7 0 95
2019-08-22 06:00:00 13.8 9 Este 13 Este 0 1018.6 -0.3 95
2019-08-22 05:00:00 14.1 9 Este 13 Este 0 1018.6 -0.7 94
2019-08-22 04:00:00 14.5 8 Este 11 Este 0 1018.7 -0.9 94
2019-08-22 03:00:00 14.8 7 Este 11 Este 0 1018.9 -0.8 93
2019-08-22 02:00:00 15.3 8 Este 11 Este 0 1019.3 -0.3 91
2019-08-22 01:00:00 15.9 8 Este 11 Este 0 1019.6 0.4 90
2019-08-22 00:00:00 17.2 3 Este 5 Sudeste 0 1019.7 1.3 85
2019-08-21 23:00:00 18.2 3 Este 9 Nordeste 0 1019.6 1.9 81
2019-08-21 22:00:00 20.2 3 Sudoeste 13 Norte 0 1019.2 2.1 71
2019-08-21 21:00:00 22.4 8 Norte 18 Nordeste 0 1018.4 1.7 59
2019-08-21 20:00:00 23.7 11 Norte 28 Nordeste 0 1017.7 1 53
2019-08-21 19:00:00 24.6 19 Nordeste 33 Nordeste 0 1017.1 0.6 55
2019-08-21 18:00:00 25.4 14 Norte 30 Nordeste 0 1016.7 -0.1 53
2019-08-21 17:00:00 25.4 18 Nordeste 32 Nordeste 0 1016.7 -0.3 52
2019-08-21 16:00:00 25.1 21 Nordeste 30 Nordeste 0 1016.5 -1.1 53
2019-08-21 15:00:00 26 16 Nordeste 28 Nordeste 0 1016.8 -1.3 47
2019-08-21 14:00:00 25.4 14 Nordeste 24 Nordeste 0 1017 -1.3 50
2019-08-21 13:00:00 24.5 13 Norte 28 Nordeste 0 1017.6 -0.8 55
2019-08-21 12:00:00 23.2 6 Norte 11 Norte 0 1018.1 -0.5 62
2019-08-21 11:00:00 21.9 2 Este 8 Este 0 1018.3 -0.1 63
2019-08-21 10:00:00 19.8 2 Este 11 Norte 0 1018.4 -0.2 76
2019-08-21 09:00:00 17.1 7 Este 15 Este 0 1018.6 -0.1 88
2019-08-21 08:00:00 15.7 7 Este 11 Este 0 1018.4 -1 93
2019-08-21 07:00:00 16.1 6 Este 9 Este 0 1018.6 -1 92
2019-08-21 06:00:00 16.4 5 Este 11 Este 0 1018.7 -1.3 91
2019-08-21 05:00:00 16.7 4 Sudeste 9 Este 0 1019.4 -1 91
2019-08-21 04:00:00 16.6 2 Este 5 Este 0 1019.6 -1.1 90
2019-08-21 03:00:00 17.1 2 Este 5 Este 0 1020 -0.9 88
2019-08-21 02:00:00 17.6 4 Este 8 Nordeste 0 1020.4 -0.5 85
2019-08-21 01:00:00 17.9 0 Calma 5 Sur 0 1020.7 0 82
2019-08-21 00:00:00 17.8 0 Calma 5 Sur 0 1020.9 0.2 81
2019-08-20 23:00:00 17.9 0 Calma 11 Nordeste 0 1020.9 0.7 83
2019-08-20 22:00:00 18.4 6 Nordeste 13 Este 0 1020.7 0.8 75
2019-08-20 21:00:00 19.9 8 Nordeste 22 Este 0 1020.7 0.9 68
2019-08-20 20:00:00 21.3 14 Este 39 Este 0 1020.2 0 66
2019-08-20 19:00:00 22 18 Nordeste 30 Nordeste 0 1019.9 -0.2 64
2019-08-20 18:00:00 21.7 18 Nordeste 35 Nordeste 0 1019.8 -0.5 63
2019-08-20 17:00:00 23.1 14 Nordeste 30 Nordeste 0 1020.2 0 61
2019-08-20 16:00:00 22.3 17 Nordeste 33 Nordeste 0 1020.1 -0.3 62
2019-08-20 15:00:00 22 7 Norte 22 Norte 0 1020.3 -0.2 62
2019-08-20 14:00:00 21.8 9 Norte 17 Nordeste 0 1020.2 0.3 65
2019-08-20 13:00:00 21.4 9 Nordeste 21 Nordeste 0 1020.4 0.9 70
2019-08-20 12:00:00 20.6 8 Sudeste 15 Sudeste 0 1020.5 1.7 74
2019-08-20 11:00:00 19.4 7 Este 11 Sudeste 0 1019.9 1.5 81
2019-08-20 10:00:00 17.3 4 Este 9 Sudeste 0 1019.5 1.7 96
2019-08-20 09:00:00 16.7 4 Noroeste 11 Noroeste 0 1018.8 1.7 96
2019-08-20 08:00:00 16.3 6 Sudeste 11 Sudeste 0.4 1018.4 1.5 97
2019-08-20 07:00:00 16.7 9 Este 13 Nordeste 0.2 1017.8 0.8 97
2019-08-20 06:00:00 16.8 0 Calma 9 Este 0 1017.1 0 96
2019-08-20 05:00:00 16.9 5 Sur 9 Sur 0.1 1016.9 -1 96
2019-08-20 04:00:00 17.2 0 Calma 11 Este 0 1017 -0.5 93
2019-08-20 03:00:00 17.2 0 Calma 11 Nordeste 0 1017.1 -0.7 93
2019-08-20 02:00:00 17.4 7 Este 9 Este 0 1017.9 0.3 93
2019-08-20 01:00:00 17.6 5 Norte 9 Norte 0 1017.5 0.2 91
2019-08-20 00:00:00 17.7 5 Este 11 Oeste 0 1017.8 0.6 90
2019-08-19 23:00:00 18.2 7 Oeste 9 Oeste 0 1017.6 0.8 87
2019-08-19 22:00:00 18.4 4 Sudoeste 11 Noroeste 0 1017.3 0.8 86
2019-08-19 21:00:00 18.6 7 Noroeste 13 Noroeste 0 1017.2 0.5 82
2019-08-19 20:00:00 19 9 Noroeste 17 Noroeste 0 1016.8 0.1 81
2019-08-19 19:00:00 19.5 8 Oeste 13 Oeste 0 1016.5 -0.6 79
2019-08-19 18:00:00 19.1 8 Sudoeste 17 Oeste 0 1016.7 -0.7 79
2019-08-19 17:00:00 19.2 7 Oeste 15 Noroeste 0 1016.7 -0.4 78
2019-08-19 16:00:00 18.8 10 Oeste 17 Oeste 0 1017.1 0.4 81
2019-08-19 15:00:00 17.8 5 Oeste 17 Este 0.3 1017.4 0.6 88
2019-08-19 14:00:00 18 14 Este 21 Este 0.6 1017.1 0.4 85
2019-08-19 13:00:00 19.7 6 Noroeste 15 Noroeste 0 1016.7 0.1 80
2019-08-19 12:00:00 19 5 Oeste 11 Oeste 0 1016.8 0.4 80
2019-08-19 11:00:00 17.8 5 Oeste 11 Noroeste 0 1016.7 0.5 87
2019-08-19 10:00:00 16.7 2 Sudoeste 13 Noroeste 0 1016.6 0.4 96
2019-08-19 09:00:00 16.2 6 Oeste 11 Sur 0 1016.4 0.3 97
2019-08-19 08:00:00 16.1 2 Sudoeste 9 Norte 1.3 1016.2 0.4 98
2019-08-19 07:00:00 16.2 0 Calma 9 Sur 0.3 1016.2 0.2 98
2019-08-19 06:00:00 16.4 9 Noroeste 13 Noroeste 0.3 1016.1 0.1 97
2019-08-19 05:00:00 16.2 0 Calma 9 Sur 0 1015.8 -0.4 97
2019-08-19 04:00:00 16.7 0 Calma 9 Este 0.1 1016 -0.2 97
2019-08-19 03:00:00 16.6 6 Este -- -- 0 1016 0 97
2019-08-19 02:00:00 16.7 5 Sudeste 9 Sudeste 0 1016.2 0.5 98
2019-08-19 01:00:00 16.8 8 Este 9 Sudeste 0 1016.2 1.1 97
2019-08-19 00:00:00 16.7 2 Este 8 Sudeste 0 1016 1.7 96
2019-08-18 23:00:00 17 2 Sudeste 5 Sudeste 0.1 1015.7 2 95
2019-08-18 22:00:00 16.9 3 Oeste 13 Oeste 0.8 1015.1 1.9 95
2019-08-18 21:00:00 17 9 Oeste 32 Oeste 0.5 1014.3 1.8 92
2019-08-18 20:00:00 18 10 Noroeste 24 Noroeste 0.2 1013.7 1.7 92
2019-08-18 19:00:00 18.3 17 Noroeste 26 Noroeste 0.3 1013.2 1.8 95
2019-08-18 18:00:00 18.8 13 Noroeste 30 Noroeste 0.5 1012.5 1.9 96
2019-08-18 17:00:00 19.5 14 Noroeste 33 Noroeste 0.2 1012 1.7 95
2019-08-18 16:00:00 20.2 22 Noroeste 39 Noroeste 0 1011.4 0.8 93
2019-08-18 15:00:00 22.5 16 Noroeste 28 Noroeste 0 1010.6 0.6 81
2019-08-18 14:00:00 23.6 14 Noroeste 26 Noroeste 0 1010.3 0.9 77
2019-08-18 13:00:00 22.1 15 Noroeste 32 Noroeste 0 1010.6 1.9 85
2019-08-18 12:00:00 24.5 19 Noroeste 30 Noroeste 0 1010 2 71
2019-08-18 11:00:00 23.3 8 Oeste 15 Oeste 0 1009.4 2.1 76
2019-08-18 10:00:00 21.8 2 Este 9 Sudeste 0 1008.7 2.6 79
2019-08-18 09:00:00 18.9 8 Este 11 Este 0 1008 2.9 83
2019-08-18 08:00:00 16.6 5 Este 9 Este 0 1007.3 2.2 90
2019-08-18 07:00:00 16.7 0 Calma 8 Oeste 0 1006.1 0.4 87
2019-08-18 06:00:00 17.2 8 Este 18 Este 0 1005.1 -1.5 86
2019-08-18 05:00:00 17.7 10 Este 17 Este 0 1005.1 -2 86
2019-08-18 04:00:00 17.3 11 Sudeste 17 Sudeste 0 1005.7 -1.8 91
2019-08-18 03:00:00 17.7 4 Este 15 Este 0 1006.6 -1.4 90
2019-08-18 02:00:00 18.1 11 Este 15 Este 0 1007.1 -1.5 89
2019-08-18 01:00:00 19.1 0 Calma 4 Sudeste 0 1007.5 -1.4 88
2019-08-18 00:00:00 20 2 Este 9 Este 0 1008 -0.7 83
2019-08-17 23:00:00 21.1 4 Este 8 Este 0 1008.6 0.1 79
2019-08-17 22:00:00 23 4 Oeste 18 Norte 0 1008.9 0.4 70
2019-08-17 21:00:00 24.2 8 Noroeste 21 Noroeste 0 1008.7 -0.1 65
2019-08-17 20:00:00 26.1 14 Noroeste 24 Norte 0 1008.5 -0.8 58
2019-08-17 19:00:00 27.4 14 Noroeste 26 Norte 0 1008.5 -1.2 52
2019-08-17 18:00:00 27.8 12 Norte 30 Norte 0 1008.8 -1.3 49
2019-08-17 17:00:00 28.2 18 Norte 28 Noroeste 0 1009.3 -1 46
2019-08-17 16:00:00 28.5 15 Noroeste 26 Noroeste 0 1009.7 -0.9 45
2019-08-17 15:00:00 28.4 16 Noroeste 30 Oeste 0 1010.1 -1.1 46
2019-08-17 14:00:00 29.2 21 Noroeste 28 Noroeste 0 1010.3 -1.2 46
2019-08-17 13:00:00 29.2 5 Noroeste 13 Norte 0 1010.6 -1 40
2019-08-17 12:00:00 26.9 3 Sudeste 13 Sudeste 0 1011.2 -0.6 48
2019-08-17 11:00:00 23.9 8 Este 15 Nordeste 0 1011.5 0.1 56
2019-08-17 10:00:00 20.4 6 Este 17 Este 0 1011.6 0.1 66
2019-08-17 09:00:00 17.1 6 Este 9 Este 0 1011.8 0.2 81
2019-08-17 08:00:00 14.9 4 Sudeste 11 Nordeste 0 1011.4 -0.5 89
2019-08-17 07:00:00 14.6 5 Este 13 Este 0 1011.5 -1 91
2019-08-17 06:00:00 14.9 6 Este 11 Sudeste 0 1011.6 -1.3 90
2019-08-17 05:00:00 15.4 6 Este 11 Este 0 1011.9 -1.4 89
2019-08-17 04:00:00 16 5 Este 8 Este 0 1012.5 -1.1 87
2019-08-17 03:00:00 16.1 8 Este 9 Este 0 1012.9 -0.6 88
2019-08-17 02:00:00 16.5 5 Sudeste 11 Este 0 1013.3 -0.3 87
2019-08-17 01:00:00 17 6 Este 11 Este 0 1013.6 0.2 84
2019-08-17 00:00:00 17.8 8 Sudeste 17 Este 0 1013.5 0.8 81
2019-08-16 23:00:00 19.1 8 Este 13 Este 0 1013.6 1.3 75
2019-08-16 22:00:00 21 3 Oeste 11 Norte 0 1013.4 1.2 66
2019-08-16 21:00:00 21.9 8 Noroeste 15 Noroeste 0 1012.7 0.8 57
2019-08-16 20:00:00 23.8 14 Oeste 22 Oeste 0 1012.3 0.4 50
2019-08-16 19:00:00 25.6 15 Oeste 26 Oeste 0 1012.2 -0.1 42
2019-08-16 18:00:00 26.7 17 Noroeste 28 Noroeste 0 1011.9 -0.7 43
2019-08-16 17:00:00 27.4 14 Oeste 22 Noroeste 0 1011.9 -0.9 39
2019-08-16 16:00:00 26.9 15 Oeste 26 Oeste 0 1012.3 -0.6 40
2019-08-16 15:00:00 26 16 Oeste 32 Oeste 0 1012.6 -0.9 46
2019-08-16 14:00:00 27.3 16 Oeste 30 Oeste 0 1012.8 -0.9 47
2019-08-16 13:00:00 25.3 6 Noroeste 11 Noroeste 0 1012.9 -1.7 52
2019-08-16 12:00:00 23.2 5 Nordeste 17 Sudeste 0 1013.5 -1.8 57
2019-08-16 11:00:00 21 13 Este 24 Sur 0 1013.7 -1.8 65
2019-08-16 10:00:00 17.9 11 Sudeste 18 Sudeste 0 1014.6 -0.7 80
2019-08-16 09:00:00 15.1 7 Este 13 Este 0 1015.3 -0.3 89
2019-08-16 08:00:00 12.8 4 Este 13 Este 0 1015.5 -0.7 96
2019-08-16 07:00:00 12.6 5 Sudeste 13 Este 0 1015.3 -0.9 96
2019-08-16 06:00:00 13 6 Este 11 Este 0 1015.6 -1.3 96
2019-08-16 05:00:00 13.5 4 Nordeste 8 Este 0 1016.2 -1.4 96
2019-08-16 04:00:00 13.6 7 Este 11 Este 0 1016.2 -1.6 96
2019-08-16 03:00:00 14.1 6 Este 9 Este 0 1016.9 -1.7 94
2019-08-16 02:00:00 14.7 5 Este 9 Nordeste 0 1017.6 -1.3 93
2019-08-16 01:00:00 15.1 5 Este 9 Este 0 1017.8 -0.8 92
2019-08-16 00:00:00 16 6 Este 9 Este 0 1018.6 0.7 88
2019-08-15 23:00:00 17.3 4 Sudeste 8 Sudeste 0 1018.9 0.8 82
2019-08-15 22:00:00 18.8 5 Sur 17 Norte 0 1018.6 0.1 77
2019-08-15 21:00:00 20.8 7 Norte 17 Nordeste 0 1017.9 -0.7 65
2019-08-15 20:00:00 22 12 Nordeste 26 Norte 0 1018.1 -0.6 60
2019-08-15 19:00:00 22.2 12 Norte 21 Norte 0 1018.5 -0.3 61
2019-08-15 18:00:00 22.1 14 Norte 28 Nordeste 0 1018.6 -0.3 62
2019-08-15 17:00:00 22.6 14 Noroeste 24 Norte 0 1018.7 -0.3 61
2019-08-15 16:00:00 23.1 13 Norte 24 Norte 0 1018.8 -0.4 59
2019-08-15 15:00:00 22.5 15 Norte 26 Norte 0 1018.9 -0.3 65
2019-08-15 14:00:00 22 11 Noroeste 22 Noroeste 0 1019 -0.4 68
2019-08-15 13:00:00 21.6 9 Norte 21 Norte 0 1019.2 0.1 73
2019-08-15 12:00:00 21 10 Oeste 18 Oeste 0 1019.2 0.2 74
2019-08-15 11:00:00 19.9 12 Oeste 18 Noroeste 0 1019.4 0.9 83
2019-08-15 10:00:00 19.3 7 Oeste 11 Oeste 0 1019.1 1 85
2019-08-15 09:00:00 18.4 8 Sudoeste 15 Oeste 0 1019 1.5 91
2019-08-15 08:00:00 18.3 4 Oeste 15 Noroeste 0 1018.5 1.4 93
2019-08-15 07:00:00 18.4 11 Oeste 28 Noroeste 0 1018.1 1.4 93
2019-08-15 06:00:00 18.4 12 Noroeste 35 Noroeste 0.1 1017.5 0.9 96
2019-08-15 05:00:00 19.3 19 Noroeste 28 Oeste 0.2 1017.1 0 94
2019-08-15 04:00:00 19.6 0 Calma 8 Sudeste 1 1016.7 -0.3 98
2019-08-15 03:00:00 19.7 3 Este 8 Este 0.5 1016.6 -0.4 98
2019-08-15 02:00:00 19.8 0 Calma 4 Sur 0.9 1017.1 0 97
2019-08-15 01:00:00 20 3 Sur 5 Sur 0.5 1017 0.3 97
2019-08-15 00:00:00 20.4 0 Calma 13 Noroeste 0 1017 0.8 93
2019-08-14 23:00:00 20.7 6 Noroeste 18 Noroeste 0 1017.1 1.3 89
2019-08-14 22:00:00 21.7 10 Noroeste 24 Noroeste 0 1016.7 0.9 78
2019-08-14 21:00:00 22 17 Noroeste 30 Noroeste 0 1016.2 0.2 74
2019-08-14 20:00:00 22.6 13 Noroeste 21 Noroeste 0 1015.8 -0.2 72
2019-08-14 19:00:00 23.3 16 Oeste 28 Noroeste 0 1015.8 -0.2 68
2019-08-14 18:00:00 23.6 17 Noroeste 30 Noroeste 0 1016 0.3 60
2019-08-14 17:00:00 24.5 16 Noroeste 32 Noroeste 0 1016 0.4 42
2019-08-14 16:00:00 25.6 20 Noroeste 35 Noroeste 0 1016 0.4 47
2019-08-14 15:00:00 25.9 21 Noroeste 30 Noroeste 0 1015.7 -0.1 46
2019-08-14 14:00:00 26.9 15 Oeste 26 Oeste 0 1015.6 -0.3 43
2019-08-14 13:00:00 25.9 7 Norte 15 Norte 0 1015.6 -0.4 41
2019-08-14 12:00:00 24.3 3 Nordeste 13 Este 0 1015.8 -0.3 48
2019-08-14 11:00:00 21.1 6 Este 17 Este 0 1015.9 0 59
2019-08-14 10:00:00 18.3 11 Este 15 Este 0 1016 0.3 70
2019-08-14 09:00:00 15.6 10 Sudeste 13 Sudeste 0 1016.1 0.3 80
2019-08-14 08:00:00 13.2 3 Este 11 Este 0 1015.9 0 90
2019-08-14 07:00:00 13 6 Este 13 Sudeste 0 1015.7 -0.4 90
2019-08-14 06:00:00 13 8 Este 18 Este 0 1015.8 -1.4 91
2019-08-14 05:00:00 13.3 12 Este 17 Sudeste 0 1015.9 -1.8 91
2019-08-14 04:00:00 13.3 10 Sudeste 13 Sudeste 0 1016.1 -1.8 92
2019-08-14 03:00:00 13.7 7 Este 9 Sudeste 0 1017.2 -1 90
2019-08-14 02:00:00 14.4 6 Sudeste 11 Sudeste 0 1017.7 -0.6 88
2019-08-14 01:00:00 15 9 Este 11 Este 0 1017.9 0 86
2019-08-14 00:00:00 16.3 5 Este 8 Nordeste 0 1018.2 0.4 80
2019-08-13 23:00:00 17.8 4 Este 13 Este 0 1018.3 1 73
2019-08-13 22:00:00 18.4 10 Este 17 Este 0 1017.9 0.5 70
2019-08-13 21:00:00 20.1 10 Nordeste 22 Este 0 1017.8 0.1 62
2019-08-13 20:00:00 21.6 14 Nordeste 22 Nordeste 0 1017.3 -0.7 56
2019-08-13 19:00:00 22.4 13 Este 28 Norte 0 1017.4 -0.7 54
2019-08-13 18:00:00 21.9 14 Nordeste 32 Nordeste 0 1017.7 -0.6 54
2019-08-13 17:00:00 23 15 Norte 28 Norte 0 1018 -0.5 51
2019-08-13 16:00:00 22.8 15 Norte 28 Noroeste 0 1018.1 -1.2 52
2019-08-13 15:00:00 22.7 11 Noroeste 30 Norte 0 1018.3 -1.1 53
2019-08-13 14:00:00 22.2 8 Norte 18 Nordeste 0 1018.5 -1.1 53
2019-08-13 13:00:00 20.4 13 Norte 24 Este 0 1019.3 -0.3 63
2019-08-13 12:00:00 21 9 Nordeste 21 Norte 0 1019.4 -0.2 58
2019-08-13 11:00:00 19.3 6 Oeste 13 Noroeste 0 1019.6 0.1 67
2019-08-13 10:00:00 18.2 4 Este 11 Este 0 1019.6 0.5 75
2019-08-13 09:00:00 15.6 4 Este 13 Este 0 1019.6 0.5 87
2019-08-13 08:00:00 13.6 8 Este 13 Este 0 1019.5 0.3 94
2019-08-13 07:00:00 13.4 7 Este 9 Este 0 1019.1 -0.4 94
2019-08-13 06:00:00 14 6 Este 8 Este 0 1019.1 -1 93
2019-08-13 05:00:00 14 6 Este 13 Este 0 1019.2 -1.5 93
2019-08-13 04:00:00 14.6 9 Este 11 Este 0 1019.5 -1.5 93
2019-08-13 03:00:00 15.1 6 Nordeste 9 Nordeste 0.1 1020.1 -1 92
2019-08-13 02:00:00 15.5 3 Este 9 Nordeste 0 1020.7 -0.2 87
2019-08-13 01:00:00 15.6 5 Este 11 Este 0 1021 0.6 85
2019-08-13 00:00:00 15.8 4 Este 13 Este 0 1021.1 1.2 84
2019-08-12 23:00:00 16.6 4 Este 9 Este 0 1020.9 1.2 79
2019-08-12 22:00:00 17.2 7 Este 11 Este 0 1020.4 1 75
2019-08-12 21:00:00 18.7 4 Noroeste 24 Noroeste 0 1019.9 0.6 64
2019-08-12 20:00:00 19.5 14 Noroeste 28 Norte 0 1019.7 0.2 63
2019-08-12 19:00:00 20.1 14 Noroeste 33 Oeste 0 1019.4 -0.4 70
2019-08-12 18:00:00 20.2 20 Oeste 33 Noroeste 0 1019.3 -0.2 66
2019-08-12 17:00:00 18.6 14 Norte 37 Noroeste 0.1 1019.5 0 79
2019-08-12 16:00:00 19.3 24 Oeste 46 Noroeste 0 1019.8 0.7 66
2019-08-12 15:00:00 20.7 29 Noroeste 46 Norte 0 1019.5 0.7 63
2019-08-12 14:00:00 20.4 27 Noroeste 48 Noroeste 0 1019.5 0.7 61
2019-08-12 13:00:00 20.8 30 Noroeste 41 Noroeste 0 1019.1 0.7 55
2019-08-12 12:00:00 20.9 24 Noroeste 37 Norte 0 1018.8 1 60
2019-08-12 11:00:00 19.1 17 Noroeste 42 Noroeste 0 1018.8 1.6 68
2019-08-12 10:00:00 18.3 16 Oeste 30 Noroeste 0 1018.4 1.7 68
2019-08-12 09:00:00 17.4 4 Noroeste 13 Noroeste 0 1017.8 1.3 75
2019-08-12 08:00:00 16.6 6 Oeste 13 Noroeste 0 1017.2 0.8 75
2019-08-12 07:00:00 16.3 7 Oeste 24 Noroeste 0 1016.7 0.2 77
2019-08-12 06:00:00 14.4 2 Noroeste 17 Oeste 0 1016.5 -0.2 94
2019-08-12 05:00:00 15 0 Calma 8 Este 0 1016.4 -- 91
2019-08-12 04:00:00 15.7 4 Este 8 Este 0 1016.5 -0.8 91
2019-08-12 03:00:00 16.3 7 Nordeste 9 Nordeste 0 1016.7 -0.7 87
2019-08-12 02:00:00 -- -- -- -- -- -- -- -- --
2019-08-12 01:00:00 17.1 0 Calma 5 Noroeste 0 1017.3 0.8 84
2019-08-12 00:00:00 17.2 0 Calma 5 Oeste 0 1017.4 1.2 85
2019-08-11 23:00:00 17.5 0 Calma 15 Norte 0 1016.9 1.4 82
2019-08-11 22:00:00 18.2 11 Noroeste 17 Norte 0 1016.5 1.3 78
2019-08-11 21:00:00 18.2 11 Noroeste 21 Noroeste 0 1016.2 1.2 80
2019-08-11 20:00:00 18.5 13 Noroeste 30 Noroeste 0 1015.5 0.9 83
2019-08-11 19:00:00 19.6 21 Noroeste 28 Noroeste 0 1015.2 0.7 79
2019-08-11 18:00:00 20.1 18 Noroeste 28 Noroeste 0 1015 0.6 78
2019-08-11 17:00:00 20 19 Noroeste 33 Noroeste 0 1014.6 0.3 80
2019-08-11 16:00:00 21.4 23 Noroeste 33 Noroeste 0 1014.5 -0.4 70
2019-08-11 15:00:00 21.2 15 Norte 39 Norte 0 1014.4 -0.3 71
2019-08-11 14:00:00 21.4 10 Norte 18 Norte 0 1014.3 -0.2 69
2019-08-11 13:00:00 21.2 4 Norte 13 Noroeste 0 1014.9 0.5 73
2019-08-11 12:00:00 19.7 8 Noroeste 15 Noroeste 0 1014.7 0.3 78
2019-08-11 11:00:00 18.7 2 Oeste 11 Norte 0 1014.5 0.4 86
2019-08-11 10:00:00 17.4 4 Sudeste 11 Sur 0.1 1014.4 0 95
2019-08-11 09:00:00 16.6 0 Calma 11 Sudeste 0.5 1014.4 0.4 97
2019-08-11 08:00:00 16.7 9 Sudeste 11 Sudeste 1.1 1014.1 0.7 97
2019-08-11 07:00:00 16.5 2 Sudoeste 17 Oeste 3.8 1014.4 0.8 95
2019-08-11 06:00:00 17.3 10 Oeste 21 Noroeste 2.2 1014 -0.3 92
2019-08-11 05:00:00 18 8 Noroeste 13 Noroeste 0.8 1013.4 -1.9 91
2019-08-11 04:00:00 18.6 8 Este 17 Sudeste 0 1013.6 -2 84
2019-08-11 03:00:00 18.8 3 Este 9 Este 0 1014.3 -1.9 80
2019-08-11 02:00:00 18.9 5 Sudeste 11 Sudeste 0 1015.3 -1.4 79
2019-08-11 01:00:00 19.4 8 Sudeste 11 Sudeste 0 1015.6 -0.8 76
2019-08-11 00:00:00 20 8 Nordeste 18 Sudeste 0 1016.2 0 73
2019-08-10 23:00:00 19.7 10 Sudeste 13 Sudeste 0 1016.7 0.9 76
2019-08-10 22:00:00 20.1 4 Sudeste 17 Este 0 1016.4 0.5 76
2019-08-10 21:00:00 21.1 8 Norte 17 Norte 0 1016.2 0.2 71
2019-08-10 20:00:00 21.6 14 Norte 28 Norte 0 1015.8 -0.3 71
2019-08-10 19:00:00 22.1 14 Norte 22 Norte 0 1015.9 -0.6 68
2019-08-10 18:00:00 23 13 Nordeste 30 Norte 0 1016 -0.6 58
2019-08-10 17:00:00 23.3 13 Norte 30 Norte 0 1016.1 -0.7 58
2019-08-10 16:00:00 23.4 15 Norte 28 Nordeste 0 1016.5 -0.4 55
2019-08-10 15:00:00 23.7 14 Norte 30 Norte 0 1016.6 -0.4 55
2019-08-10 14:00:00 23.4 17 Norte 30 Norte 0 1016.8 0 57
2019-08-10 13:00:00 22.4 14 Norte 26 Norte 0 1016.9 0.3 66
2019-08-10 12:00:00 22.5 10 Noroeste 21 Noroeste 0 1017 1.1 69
2019-08-10 11:00:00 20.5 4 Este 18 Nordeste 0.1 1016.8 1.7 79
2019-08-10 10:00:00 20.4 9 Norte 24 Norte 0 1016.6 2.1 81
2019-08-10 09:00:00 20.2 4 Norte 8 Norte 0 1015.9 1.8 89
2019-08-10 08:00:00 20.1 4 Este 8 Este 0 1015.1 1.3 88
2019-08-10 07:00:00 20.2 5 Este 13 Noroeste 0 1014.5 1.2 86
2019-08-10 06:00:00 20.3 3 Sur 9 Nordeste 0 1014.1 0.9 86
2019-08-10 05:00:00 19.9 0 Calma 9 Norte 0 1013.8 0.8 88
2019-08-10 04:00:00 19.4 5 Este 8 Este 0 1013.3 0.8 90
2019-08-10 03:00:00 19 5 Este 11 Sudeste 0 1013.2 0.8 92
2019-08-10 02:00:00 19.1 5 Este 9 Sudeste 0 1013 0.9 90
2019-08-10 01:00:00 19.8 4 Sudeste 5 Sudeste 0 1012.5 1.5 87
2019-08-10 00:00:00 20.6 0 Calma 11 Este 0 1012.4 2 86
2019-08-09 23:00:00 21.9 8 Nordeste 13 Nordeste 0 1012.1 2.7 79
2019-08-09 22:00:00 22.3 5 Sudeste 18 Este 0 1011 3 79
2019-08-09 21:00:00 23.3 9 Sudeste 21 Nordeste 0 1010.4 3.9 77
2019-08-09 20:00:00 23.6 7 Noroeste 26 Noroeste 0 1009.4 3.6 78
2019-08-09 19:00:00 24.6 16 Oeste 39 Noroeste 0 1008 1.7 73
2019-08-09 18:00:00 26.3 22 Noroeste 35 Noroeste 0 1006.5 0.1 65
2019-08-09 17:00:00 30.2 8 Sudeste 28 Sudoeste 0 1005.8 -0.7 45
2019-08-09 16:00:00 29.5 8 Sudoeste 50 Sudoeste 0 1006.3 -1.2 47
2019-08-09 15:00:00 29.7 17 Sur 45 Sudoeste 0 1006.4 -0.1 53
2019-08-09 14:00:00 28.8 12 Sudeste 22 Sudeste 0 1006.5 0.2 63
2019-08-09 13:00:00 26.1 9 Norte 24 Nordeste 0 1007.5 1.5 75
2019-08-09 12:00:00 26 5 Sudeste 17 Este 0 1006.5 1.5 76
2019-08-09 11:00:00 24.4 9 Oeste 18 Oeste 0 1006.3 2.3 82
2019-08-09 10:00:00 24.5 15 Oeste 24 Oeste 0 1006 2.4 82
2019-08-09 09:00:00 25.6 14 Noroeste 39 Noroeste 0 1005 2 74
2019-08-09 08:00:00 29.4 14 Oeste 37 Oeste 0 1004 1.2 46
2019-08-09 07:00:00 29.3 14 Oeste 30 Oeste 0 1003.6 0.8 45
2019-08-09 06:00:00 29.5 3 Este 22 Sudoeste 0 1003 0.4 42
2019-08-09 05:00:00 30.5 15 Oeste 33 Oeste 0 1002.8 -0.1 41
2019-08-09 04:00:00 30.1 13 Sur 37 Sudoeste 0 1002.8 0 44
2019-08-09 03:00:00 31.4 11 Sudoeste 35 Sudoeste 0 1002.6 0 41
2019-08-09 02:00:00 30.2 11 Sudoeste 21 Oeste 0 1002.9 0.4 44
2019-08-09 01:00:00 27.4 5 Este 18 Sudeste 0 1002.8 0.7 57
2019-08-09 00:00:00 25.9 6 Este 17 Este 0 1002.6 1.1 70
2019-08-08 23:00:00 26.8 9 Este 15 Este 0 1002.5 0.9 68
2019-08-08 22:00:00 28.8 0 Calma 9 Nordeste 0 1002.1 -0.3 64
2019-08-08 21:00:00 31.3 4 Nordeste 18 Nordeste 0 1001.5 -1.6 51
2019-08-08 20:00:00 33 13 Nordeste 17 Nordeste 0 1001.6 -2.1 46
2019-08-08 19:00:00 34.4 6 Sudeste 18 Sur 0 1002.4 -2 41
2019-08-08 18:00:00 35.1 10 Sur 24 Sudoeste 0 1003.1 -1.6 38
2019-08-08 17:00:00 34.8 14 Sudoeste 37 Oeste 0 1003.7 -1.4 37
2019-08-08 16:00:00 34.4 21 Oeste 37 Oeste 0 1004.4 -0.9 38
2019-08-08 15:00:00 33.7 13 Sudoeste 37 Oeste 0 1004.7 -1.1 39
2019-08-08 14:00:00 33.1 22 Sudoeste 39 Sudoeste 0 1005.1 -0.7 38
2019-08-08 13:00:00 31.8 20 Oeste 42 Oeste 0 1005.3 -0.6 41
2019-08-08 12:00:00 30.4 17 Sudoeste 37 Sudoeste 0 1005.8 0.1 46
2019-08-08 11:00:00 29.3 23 Sudoeste 41 Oeste 0 1005.8 0.1 48
2019-08-08 10:00:00 28 24 Sudoeste 39 Sudoeste 0 1005.9 0.1 52
2019-08-08 09:00:00 26.6 11 Sur 24 Oeste 0 1005.7 0.1 54
2019-08-08 08:00:00 23.4 4 Sur 13 Nordeste 0 1005.7 -0.3 66
2019-08-08 07:00:00 23.1 2 Sur 18 Sur 0 1005.8 -0.5 66
2019-08-08 06:00:00 22.6 6 Este 17 Nordeste 0 1005.6 -1.2 70
2019-08-08 05:00:00 20.2 6 Sudeste 11 Sudeste 0 1006 -0.9 94
2019-08-08 04:00:00 20.3 6 Este 11 Este 0 1006.3 -0.7 93
2019-08-08 03:00:00 21.1 3 Nordeste 8 Este 0 1006.8 -0.3 91
2019-08-08 02:00:00 21.9 0 Calma 11 Noroeste 0 1006.9 -0.2 89
2019-08-08 01:00:00 22.9 4 Sur 13 Sudeste 0 1007 0.3 83
2019-08-08 00:00:00 23.4 3 Sur 15 Nordeste 0 1007.1 0.4 80
2019-08-07 23:00:00 23.7 0 Calma 13 Sudeste 0 1007.1 1 79
2019-08-07 22:00:00 24.1 6 Nordeste 17 Este 0 1006.7 0.9 75
2019-08-07 21:00:00 25.9 12 Norte 18 Nordeste 0 1006.7 0.9 66
2019-08-07 20:00:00 27.3 12 Este 30 Este 0 1006.1 -0.2 60
2019-08-07 19:00:00 28.8 14 Este 33 Nordeste 0 1005.8 -1.1 54
2019-08-07 18:00:00 29.3 17 Este 35 Nordeste 0 1005.8 -1.6 55
2019-08-07 17:00:00 29.3 17 Este 42 Nordeste 0 1006.3 -2 55
2019-08-07 16:00:00 28.8 17 Este 32 Nordeste 0 1006.9 -1.8 58
2019-08-07 15:00:00 28.8 18 Este 24 Nordeste 0 1007.4 -1.6 57
2019-08-07 14:00:00 28.1 9 Este 21 Norte 0 1008.3 -1 57
2019-08-07 13:00:00 27 10 Este 22 Este 0 1008.7 -0.2 58
2019-08-07 12:00:00 26 6 Sudeste 15 Este 0 1009 0.5 64
2019-08-07 11:00:00 24.8 3 Este 11 Sudeste 0 1009.3 0.9 69
2019-08-07 10:00:00 23.2 5 Este 9 Este 0 1008.9 1 77
2019-08-07 09:00:00 20.8 6 Sudeste 13 Sudeste 0 1008.5 1 89
2019-08-07 08:00:00 19.7 5 Este 9 Nordeste 0 1008.4 1.3 93
2019-08-07 07:00:00 19.5 3 Sur 5 Sur 0 1007.9 0.8 93
2019-08-07 06:00:00 19.7 4 Sudeste 11 Este 0 1007.5 -0.1 92
2019-08-07 05:00:00 20 9 Este 15 Este 0 1007.1 -1.4 90
2019-08-07 04:00:00 19.8 4 Sur 13 Sudeste 0 1007.1 -2.6 93
2019-08-07 03:00:00 20.3 5 Sudeste 22 Sudeste 0 1007.6 -2.4 91
2019-08-07 02:00:00 20.3 13 Sudeste 18 Sudeste 0 1008.5 -1.2 92
2019-08-07 01:00:00 20.9 0 Calma 15 Este 0 1009.7 -0.4 88
2019-08-07 00:00:00 21.1 4 Sur 11 Noroeste 0 1010 0.1 87
2019-08-06 23:00:00 21.7 2 Oeste 13 Norte 0 1009.7 0.3 82
2019-08-06 22:00:00 21.9 8 Noroeste 15 Noroeste 0 1010.1 1.4 86
2019-08-06 21:00:00 22.1 9 Noroeste 22 Noroeste 0 1009.9 1.5 82
2019-08-06 20:00:00 22.7 13 Noroeste 24 Noroeste 0 1009.4 1.2 78
2019-08-06 19:00:00 23.9 17 Noroeste 26 Noroeste 0 1008.7 -- 70
2019-08-06 18:00:00 25.2 18 Noroeste 30 Noroeste 0 1008.4 0.4 64
2019-08-06 17:00:00 26.9 20 Noroeste 32 Oeste 0 1008.2 -0.2 57
2019-08-06 16:00:00 27.6 18 Noroeste 30 Noroeste 0 -- -- 62
2019-08-06 15:00:00 27.9 9 Noroeste 28 Norte 0 1008 -1.3 62
2019-08-06 14:00:00 27 8 Norte 15 Norte 0 1008.4 -1.2 58
2019-08-06 13:00:00 26.3 3 Nordeste 13 Nordeste 0 1008.8 -0.7 61
2019-08-06 12:00:00 25.4 8 Este 18 Este 0 1009.3 -0.1 65
2019-08-06 11:00:00 23.6 6 Este 13 Este 0 1009.6 -0.2 75
2019-08-06 10:00:00 20.9 6 Sur 15 Sudeste 0 1009.5 -0.6 84
2019-08-06 09:00:00 19.4 8 Sudeste 13 Este 0 1009.4 -1 92
2019-08-06 08:00:00 17 3 Sudeste 8 Este 0 1009.8 -0.8 96
2019-08-06 07:00:00 16.4 3 Sudeste 8 Nordeste 0 1010.1 -0.8 97
2019-08-06 06:00:00 16.8 4 Sudeste 13 Este 0 1010.4 -0.8 97
2019-08-06 05:00:00 16.8 8 Este 11 Sudeste 0 1010.6 -1 96
2019-08-06 04:00:00 17.4 0 Calma 5 Este 0 1010.9 -0.8 96
2019-08-06 03:00:00 17.8 5 Este 11 Este 0 1011.2 -0.8 96
2019-08-06 02:00:00 18.1 7 Este 9 Este 0 1011.6 -0.4 94
2019-08-06 01:00:00 18.7 0 Calma 5 Este 0 1011.7 0.3 92
2019-08-06 00:00:00 19.5 3 Este 5 Este 0 1012 1.1 90
2019-08-05 23:00:00 20.3 0 Calma 11 Noroeste 0 1012 1.2 87
2019-08-05 22:00:00 21.1 8 Noroeste 13 Noroeste 0 1011.4 0.7 83
2019-08-05 21:00:00 22.9 10 Norte 18 Noroeste 0 1010.9 0.1 75
2019-08-05 20:00:00 24.5 14 Noroeste 24 Norte 0 1010.8 -0.2 62
2019-08-05 19:00:00 25.3 10 Nordeste 24 Nordeste 0 1010.7 -0.6 63
2019-08-05 18:00:00 25.7 10 Este 24 Nordeste 0 1010.8 -0.4 63
2019-08-05 17:00:00 26 12 Nordeste 24 Nordeste 0 1011 -0.5 63
2019-08-05 16:00:00 25.5 12 Norte 24 Nordeste 0 1011.3 -0.6 68
2019-08-05 15:00:00 26.4 10 Nordeste 24 Nordeste 0 1011.2 -1.2 61
2019-08-05 14:00:00 26.2 6 Este 21 Nordeste 0 1011.5 -1.1 61
2019-08-05 13:00:00 24.3 5 Nordeste 15 Nordeste 0 1011.9 -1.2 67
2019-08-05 12:00:00 24.7 3 Sudeste 13 Este 0 1012.4 -0.7 64
2019-08-05 11:00:00 22.6 6 Sudeste 13 Sudeste 0 1012.6 -0.6 78
2019-08-05 10:00:00 20.3 6 Sudeste 9 Sudeste 0 1013.1 0.2 88
2019-08-05 09:00:00 18.6 5 Este 9 Sudeste 0 1013.1 0.4 93
2019-08-05 08:00:00 16.6 4 Este 8 Este 0 1013.2 0.3 98
2019-08-05 07:00:00 16.4 4 Este 8 Este 0 1012.9 -0.1 98
2019-08-05 06:00:00 16.3 7 Este 11 Este 0 1012.7 -0.6 97
2019-08-05 05:00:00 16.6 0 Calma 5 Este 0 1012.9 -0.6 97
2019-08-05 04:00:00 17.1 3 Sudeste 8 Sudeste 0 1013 -0.8 97
2019-08-05 03:00:00 17.4 6 Este 9 Sudeste 0 1013.3 -0.5 96
2019-08-05 02:00:00 18.1 5 Este 8 Sudeste 0 1013.5 -0.6 95
2019-08-05 01:00:00 18.8 0 Calma 5 Este 0 1013.8 0.2 93
2019-08-05 00:00:00 19.4 0 Calma 5 Este 0 1013.8 0.6 91
2019-08-04 23:00:00 20.5 0 Calma 8 Norte 0 1014.1 1.4 87
2019-08-04 22:00:00 21.3 3 Oeste 13 Norte 0 1013.6 1.5 84
2019-08-04 21:00:00 21.5 9 Noroeste 17 Noroeste 0 1013.2 1.4 83
2019-08-04 20:00:00 21.9 11 Noroeste 18 Noroeste 0 1012.7 0.6 80
2019-08-04 19:00:00 22.6 10 Noroeste 18 Norte 0 1012.1 0.1 77
2019-08-04 18:00:00 23.2 9 Norte 21 Noroeste 0 1011.8 -0.2 73
2019-08-04 17:00:00 23.1 11 Norte 26 Noroeste 0 1012.1 0.3 76
2019-08-04 16:00:00 23.4 10 Norte 18 Noroeste 0 1012 0 74
2019-08-04 15:00:00 22.9 14 Noroeste 22 Noroeste 0 1012 -0.1 76
2019-08-04 14:00:00 23.3 9 Noroeste 15 Noroeste 0 1011.8 -0.6 74
2019-08-04 13:00:00 23.5 5 Norte 15 Noroeste 0 1012 -0.6 73
2019-08-04 12:00:00 22.6 7 Oeste 13 Oeste 0 1012.1 -0.4 77
2019-08-04 11:00:00 21.9 6 Norte 13 Norte 0 1012.4 0.2 81
2019-08-04 10:00:00 20.4 5 Este 9 Este 0 1012.6 0.7 89
2019-08-04 09:00:00 19.2 4 Sudeste 9 Este 0 1012.5 0.9 94
2019-08-04 08:00:00 18.3 5 Sudeste 13 Este 0 1012.2 0.6 95
2019-08-04 07:00:00 18.2 5 Sudeste 9 Sudeste 0 1011.9 0.1 95
2019-08-04 06:00:00 18.8 7 Sudeste 8 Sudeste 0 1011.6 -0.2 95
2019-08-04 05:00:00 19.8 5 Este 8 Este 0 1011.6 -0.3 91
2019-08-04 04:00:00 20.9 4 Norte 9 Norte 0 1011.8 -0.2 86
2019-08-04 03:00:00 21 5 Noroeste 11 Noroeste 0 1011.8 -0.3 89
2019-08-04 02:00:00 21.2 8 Noroeste 13 Noroeste 0 1011.9 -0.1 88
2019-08-04 01:00:00 21.3 6 Norte 11 Noroeste 0 1012 0.4 86
2019-08-04 00:00:00 21.6 8 Norte 15 Norte 0 1012.1 1.1 85
2019-08-03 23:00:00 21.7 9 Norte 18 Noroeste 0 1012 1.4 86
2019-08-03 22:00:00 21.7 13 Noroeste 24 Noroeste 0 1011.6 1.5 85
2019-08-03 21:00:00 22.4 16 Noroeste 24 Noroeste 0 1011 1.2 80
2019-08-03 20:00:00 23.5 16 Noroeste 28 Noroeste 0 1010.6 0.7 74
2019-08-03 19:00:00 24.4 20 Noroeste 28 Noroeste 0 1010.1 0.4 71
2019-08-03 18:00:00 25 19 Oeste 32 Noroeste 0 1009.8 0.2 67
2019-08-03 17:00:00 25.6 22 Noroeste 35 Noroeste 0 1009.9 0.1 67
2019-08-03 16:00:00 26 24 Oeste 35 Noroeste 0 1009.7 -0.7 65
2019-08-03 15:00:00 27.4 18 Noroeste 30 Noroeste 0 1009.6 -1.2 64
2019-08-03 14:00:00 28.5 4 Este 13 Oeste 0 1009.8 -1.5 55
2019-08-03 13:00:00 27 4 Nordeste 21 Sudeste 0 1010.4 -1.3 59
2019-08-03 12:00:00 25.1 5 Este 13 Este 0 1010.8 -1.1 64
2019-08-03 11:00:00 22.9 3 Este 11 Sudeste 0 1011.3 -0.8 71
2019-08-03 10:00:00 20.4 4 Este 9 Este 0 1011.7 -0.5 82
2019-08-03 09:00:00 18 5 Sudeste 13 Este 0 1011.9 -0.1 90
2019-08-03 08:00:00 15.8 10 Este 13 Este 0 1012.1 -0.3 96
2019-08-03 07:00:00 15.3 4 Este 8 Este 0 1012.2 -0.5 96
2019-08-03 06:00:00 15.6 5 Este 8 Este 0 1012 -1.1 96
2019-08-03 05:00:00 16.3 6 Este 9 Este 0 1012.4 -0.9 95
2019-08-03 04:00:00 17 0 Calma 8 Este 0 1012.7 -0.9 94
2019-08-03 03:00:00 16.9 5 Este 9 Este 0 1013.1 -0.6 95
2019-08-03 02:00:00 16.8 6 Este 9 Sudeste 0 1013.3 -0.4 93
2019-08-03 01:00:00 17.6 0 Calma 4 Sudeste 0 1013.6 0.2 91
2019-08-03 00:00:00 18.7 4 Este 11 Este 0 1013.7 0.7 86
2019-08-02 23:00:00 19.6 5 Sudeste 15 Nordeste 0 1013.7 0.9 81
2019-08-02 22:00:00 21 9 Este 17 Este 0 1013.4 0.6 74
2019-08-02 21:00:00 22.7 10 Este 28 Este 0 1013 0.1 66
2019-08-02 20:00:00 24.1 14 Nordeste 28 Nordeste 0 1012.8 -0.5 62
2019-08-02 19:00:00 25.1 16 Nordeste 26 Nordeste 0 1012.8 -0.8 58
2019-08-02 18:00:00 25.6 16 Nordeste 28 Nordeste 0 1012.9 -1.1 58
2019-08-02 17:00:00 25.6 13 Nordeste 22 Nordeste 0 1013.3 -1 62
2019-08-02 16:00:00 25.2 8 Este 24 Norte 0 1013.6 -1 62
2019-08-02 15:00:00 24.5 10 Nordeste 24 Nordeste 0 1014 -0.7 65
2019-08-02 14:00:00 23.7 12 Nordeste 26 Nordeste 0 1014.3 -0.4 70
2019-08-02 13:00:00 23 10 Nordeste 21 Este 0 1014.6 0.1 71
2019-08-02 12:00:00 22.9 5 Este 11 Este 0 1014.7 0.4 73
2019-08-02 11:00:00 21.3 0 Calma 8 Sudeste 0 1014.7 0.7 80
2019-08-02 10:00:00 20.4 0 Calma 9 Este 0 1014.5 0.8 84
2019-08-02 09:00:00 19.2 7 Este 13 Este 0 1014.3 0.7 92
2019-08-02 08:00:00 18.6 5 Sudeste 8 Este 0 1014 0.1 95
2019-08-02 07:00:00 18.6 4 Sudeste 8 Este 0 1013.7 -0.4 94
2019-08-02 06:00:00 18.5 4 Sudeste 9 Sudeste 0 1013.6 -0.7 95
2019-08-02 05:00:00 18.7 0 Calma 8 Este 0 1013.9 -0.7 95
2019-08-02 04:00:00 18.7 5 Este 8 Este 0 1014.1 -0.6 94
2019-08-02 03:00:00 18.7 4 Sudeste 5 Sudeste 0 1014.3 -0.4 94
2019-08-02 02:00:00 18.8 3 Sudeste 5 Este 0 1014.6 0 94
2019-08-02 01:00:00 18.8 0 Calma 4 Sur 0 1014.7 0.8 93
2019-08-02 00:00:00 18.9 3 Noroeste 8 Oeste 0 1014.7 1.1 93
2019-08-01 23:00:00 19 8 Noroeste 11 Noroeste 0 1014.6 1.5 92
2019-08-01 22:00:00 19.1 8 Noroeste 13 Noroeste 0 1013.9 1.1 91
2019-08-01 21:00:00 19.6 11 Noroeste 18 Noroeste 0 1013.6 1.2 88
2019-08-01 20:00:00 20.1 8 Noroeste 15 Norte 0 1013.1 1.2 83
2019-08-01 19:00:00 20.2 11 Norte 21 Norte 0 1012.8 1 81
2019-08-01 18:00:00 20.4 11 Norte 26 Noroeste 0 1012.4 0.8 83
2019-08-01 17:00:00 20.7 18 Noroeste 30 Noroeste 0 1011.9 0.4 82
2019-08-01 16:00:00 21.6 17 Noroeste 30 Noroeste 0 1011.8 0.6 76
2019-08-01 15:00:00 21.6 22 Noroeste 33 Noroeste 0 1011.6 0.4 78
2019-08-01 14:00:00 21.7 23 Noroeste 33 Noroeste 0 1011.5 0.2 77
2019-08-01 13:00:00 22.4 18 Noroeste 26 Noroeste 0 1011.2 0.1 74
2019-08-01 12:00:00 21.5 9 Noroeste 17 Noroeste 0 1011.2 0.3 79
2019-08-01 11:00:00 20.7 4 Oeste 9 Oeste 0 1011.3 0.3 81
2019-08-01 10:00:00 19.4 6 Este 13 Este 0 1011.1 0.1 88
2019-08-01 09:00:00 18.3 4 Oeste 8 Oeste 0 1010.9 0.2 96
2019-08-01 08:00:00 17.7 4 Sur 13 Este 0 1011 0.7 97
2019-08-01 07:00:00 17.9 6 Sudeste 11 Noroeste 0 1011 -0.9 97
2019-08-01 06:00:00 18.1 5 Sudeste 45 Sudeste 2.2 1010.7 -1.9 94
2019-08-01 05:00:00 19.2 27 Este 45 Este 3.2 1010.3 -2.7 85
2019-08-01 04:00:00 19.3 5 Noroeste 8 Noroeste 0 1011.9 -1.7 83
2019-08-01 03:00:00 19.5 2 Oeste 8 Oeste 0 1012.6 -1.2 81
2019-08-01 02:00:00 19.8 0 Calma 8 Nordeste 0 1013 -1 78
2019-08-01 01:00:00 20 3 Nordeste 9 Este 0 1013.6 -0.2 75
2019-08-01 00:00:00 20.1 5 Este 11 Este 0 1013.8 0.3 73
2019-07-31 23:00:00 20.1 5 Este 15 Nordeste 0 1014 0.7 72
2019-07-31 22:00:00 20.2 5 Sudeste 17 Este 0 1013.8 0.5 71
2019-07-31 21:00:00 20.6 12 Este 28 Este 0 1013.5 -0.2 68
2019-07-31 20:00:00 21.8 13 Nordeste 30 Este 0 1013.3 -0.5 63
2019-07-31 19:00:00 22 17 Este 33 Nordeste 0 1013.3 -0.9 60
2019-07-31 18:00:00 22.3 17 Nordeste 30 Norte 0 1013.7 -0.8 58
2019-07-31 17:00:00 22 18 Nordeste 28 Nordeste 0 1013.8 -1.3 60
2019-07-31 16:00:00 22.8 16 Nordeste 37 Nordeste 0 1014.2 -1.4 55
2019-07-31 15:00:00 23.1 15 Este 37 Nordeste 0 1014.5 -1.7 55
2019-07-31 14:00:00 23.3 11 Este 30 Este 0 1015.1 -1.2 53
2019-07-31 13:00:00 22.3 17 Nordeste 30 Nordeste 0 1015.6 -1.3 54
2019-07-31 12:00:00 21.2 14 Este 26 Este 0 1016.2 -0.9 61
2019-07-31 11:00:00 20.1 4 Este 11 Sudeste 0 1016.3 -0.8 67
2019-07-31 10:00:00 17.6 4 Este 11 Sudeste 0 1016.9 -0.1 77
2019-07-31 09:00:00 15.3 8 Sudeste 11 Sudeste 0 1017.1 -0.2 86
2019-07-31 08:00:00 12.9 7 Este 11 Este 0 1017.1 -0.2 94
2019-07-31 07:00:00 12.2 8 Sudeste 13 Sudeste 0 1017 -0.5 95
2019-07-31 06:00:00 12.8 2 Sudeste 9 Sudeste 0 1017.3 -0.4 94
2019-07-31 05:00:00 12.8 6 Este 13 Este 0 1017.3 -0.6 94
2019-07-31 04:00:00 13.3 9 Este 11 Este 0 1017.5 -0.4 94
2019-07-31 03:00:00 13.4 8 Este 11 Este 0 1017.7 -0.6 93
2019-07-31 02:00:00 14 6 Sudeste 11 Este 0 1017.9 -0.3 91
2019-07-31 01:00:00 14.7 8 Este 13 Este 0 1017.9 0.4 90
2019-07-31 00:00:00 15.8 6 Este 13 Este 0 1018.3 0.9 85
2019-07-30 23:00:00 17 5 Sudeste 13 Nordeste 0 1018.2 1 79
2019-07-30 22:00:00 18.4 5 Este 13 Este 0 1017.5 0.5 71
2019-07-30 21:00:00 19.7 10 Norte 22 Norte 0 1017.4 0.3 65
2019-07-30 20:00:00 20 14 Norte 28 Norte 0 1017.2 0.1 61
2019-07-30 19:00:00 21.2 18 Noroeste 37 Norte 0 1017 -0.1 53
2019-07-30 18:00:00 21.6 20 Norte 39 Norte 0 1017.1 0.1 60
2019-07-30 17:00:00 22.3 24 Norte 41 Noroeste 0 1017.1 0 55
2019-07-30 16:00:00 22.1 29 Norte 42 Norte 0 1017.1 0.1 52
2019-07-30 15:00:00 22.5 28 Noroeste 42 Noroeste 0 1017 0.3 51
2019-07-30 14:00:00 22.3 25 Noroeste 42 Norte 0 1017.1 0.6 57
2019-07-30 13:00:00 21.6 27 Norte 41 Norte 0 1017 0.6 59
2019-07-30 12:00:00 21.4 20 Norte 32 Norte 0 1016.7 0.7 56
2019-07-30 11:00:00 20.6 19 Noroeste 35 Noroeste 0 1016.5 1 59
2019-07-30 10:00:00 19.7 16 Noroeste 30 Noroeste 0 1016.4 1.4 64
2019-07-30 09:00:00 18.2 0 Calma 13 Este 0 1016 1.3 79
2019-07-30 08:00:00 15.7 9 Sudeste 13 Sudeste 0 1015.5 1.1 96
2019-07-30 07:00:00 16.2 5 Sudeste 15 Oeste 0 1015 0.9 93
2019-07-30 06:00:00 17 0 Calma 21 Noroeste 0 1014.7 0.7 86
2019-07-30 05:00:00 16.4 3 Este 11 Sudeste 0 1014.4 0.4 97
2019-07-30 04:00:00 16.5 4 Sudeste 11 Sudeste 0 1014.1 0.3 97
2019-07-30 03:00:00 16.9 5 Sudeste 11 Sudeste 0 1014 0.4 97
2019-07-30 02:00:00 17.2 10 Este 13 Este 0 1014 0.8 96
2019-07-30 01:00:00 17.3 6 Sudeste 13 Nordeste 0 1013.8 1.5 96
2019-07-30 00:00:00 17.4 3 Este 8 Sur 0.3 1013.6 2.5 95
2019-07-29 23:00:00 17.6 2 Oeste 15 Noroeste 0.5 1013.2 2.3 93
2019-07-29 22:00:00 18.3 11 Noroeste 21 Oeste 0.3 1012.3 2 89
2019-07-29 21:00:00 19.5 3 Sudeste 18 Noroeste 0 1011.1 1.1 78
2019-07-29 20:00:00 20 17 Noroeste 35 Noroeste 0 1010.9 1.4 75
2019-07-29 19:00:00 21.7 8 Norte 18 Norte 0 1010.3 1.1 62
2019-07-29 18:00:00 21.9 11 Norte 24 Norte 0 1010 1.4 62
2019-07-29 17:00:00 21.9 14 Norte 28 Norte 0 1009.5 1.3 65
2019-07-29 16:00:00 22 21 Norte 33 Noroeste 0 1009.2 1.5 68
2019-07-29 15:00:00 22.3 20 Noroeste 33 Noroeste 0 1008.6 1.3 68
2019-07-29 14:00:00 23.5 20 Noroeste 41 Noroeste 0 1008.2 1.7 64
2019-07-29 13:00:00 24.5 19 Noroeste 37 Norte 0 1007.7 1.5 65
2019-07-29 12:00:00 24.3 21 Noroeste 39 Noroeste 0 1007.3 1.3 63
2019-07-29 11:00:00 23.8 12 Noroeste 24 Noroeste 0 1006.5 0.8 64
2019-07-29 10:00:00 21.4 4 Sudeste 11 Nordeste 0 1006.2 1.2 72
2019-07-29 09:00:00 18.1 4 Sudeste 8 Este 0 1006 1.1 81
2019-07-29 08:00:00 15.6 0 Calma 21 Este 0 1005.7 0.7 90
2019-07-29 07:00:00 14.6 10 Este 13 Este 0 1005 0 94
2019-07-29 06:00:00 14.9 5 Sudeste 13 Este 0 1004.9 -0.2 94
2019-07-29 05:00:00 15.4 4 Este 8 Este 0 1005 -0.4 93
2019-07-29 04:00:00 16.1 4 Sur 9 Sudeste 0 1005 -0.8 92
2019-07-29 03:00:00 16.3 6 Sudeste 11 Sudeste 0 1005.1 -1.1 91
2019-07-29 02:00:00 16.9 6 Sudeste 9 Este 0 1005.4 -1.2 90
2019-07-29 01:00:00 17.4 0 Calma 8 Este 0 1005.8 -0.7 88
2019-07-29 00:00:00 18 0 Calma 11 Este 0 1006.2 -0.5 86
2019-07-28 23:00:00 19.3 7 Este 13 Nordeste 0 1006.6 -0.2 78
2019-07-28 22:00:00 20.7 9 Este 17 Este 0 1006.5 -0.5 70
2019-07-28 21:00:00 22.1 12 Este 26 Nordeste 0 1006.7 -0.7 63
2019-07-28 20:00:00 23.6 13 Este 26 Este 0 1006.8 -1.1 58
2019-07-28 19:00:00 24.2 15 Este 32 Este 0 1007 -1.4 57
2019-07-28 18:00:00 24.4 13 Este 28 Nordeste 0 1007.4 -1.5 55
2019-07-28 17:00:00 24.6 15 Nordeste 32 Nordeste 0 1007.9 -1.6 55
2019-07-28 16:00:00 24.1 14 Este 33 Nordeste 0 1008.4 -1.5 56
2019-07-28 15:00:00 23.7 10 Este 21 Este 0 1008.9 -1.4 54
2019-07-28 14:00:00 22.4 8 Sur 17 Este 0 1009.5 -0.7 59
2019-07-28 13:00:00 21.3 5 Norte 22 Nordeste 0 1009.9 -0.4 64
2019-07-28 12:00:00 20.2 14 Nordeste 30 Norte 0 1010.3 0.1 78
2019-07-28 11:00:00 20.3 4 Norte 11 Este 0 1010.2 -0.1 75
2019-07-28 10:00:00 19.5 6 Este 11 Este 0 1010.3 0.3 83
2019-07-28 09:00:00 16.5 4 Este 11 Sudeste 0 1010.2 0.4 96
2019-07-28 08:00:00 14.7 6 Este 13 Este 0 1010.3 0.3 99
2019-07-28 07:00:00 15 5 Este 9 Este 0 1010 -0.1 99
2019-07-28 06:00:00 15.5 0 Calma 8 Este 0 1009.8 -0.3 99
2019-07-28 05:00:00 15.6 2 Sur 9 Sudeste 0 1010 -0.1 98
2019-07-28 04:00:00 15.8 5 Sudeste 9 Sudeste 0 1010.1 -0.2 98
2019-07-28 03:00:00 16.2 3 Sur 9 Norte 0.7 1010.1 0.1 96
2019-07-28 02:00:00 15.9 4 Sudeste 8 Sudeste 0.8 1010.1 0.1 97
2019-07-28 01:00:00 16.4 4 Sudeste 9 Este 0.1 1010.3 0.5 97
2019-07-28 00:00:00 16.3 4 Este 11 Sudeste 0 1010 1.1 96
2019-07-27 23:00:00 16.4 0 Calma 15 Oeste 0 1010 1.8 94
2019-07-26 12:00:00 18.9 11 Noroeste 21 Norte 0.5 1011.2 0.7 98
2019-07-26 11:00:00 18.5 15 Noroeste 28 Noroeste 1.1 1011.3 0.8 97
2019-07-26 10:00:00 18.7 14 Noroeste 24 Noroeste 1.3 1011.1 0.9 98
2019-07-26 09:00:00 18.7 5 Noroeste 17 Norte 1.2 1010.5 0.5 97
2019-07-26 08:00:00 18.4 12 Noroeste 30 Noroeste 8.5 1010.5 -0.1 98
2019-07-26 07:00:00 19.7 15 Noroeste 22 Noroeste 2 1010.2 -0.1 98
2019-07-26 06:00:00 20.1 4 Este 11 Sudeste 4.1 1010 -0.9 99
2019-07-26 05:00:00 20.3 6 Oeste 13 Oeste 3.1 1010.6 -0.3 98
2019-07-26 04:00:00 20.4 2 Sur 18 Sur 0.8 1010.3 -0.5 97
2019-07-26 03:00:00 20.7 10 Sudeste 17 Sudeste 1.7 1010.9 -0.1 97
2019-07-26 02:00:00 21.3 8 Sudeste 11 Sudeste 0.2 1010.9 0.2 96
2019-07-26 01:00:00 22 0 Calma 9 Nordeste 0.1 1010.8 0.2 94
2019-07-26 00:00:00 22 0 Calma 11 Noroeste 0.1 1011 1.5 94